Time;durP1;ratioP1;P1;durP2;ratioP2;P2;SDS_P1;SDS_P2;PMS_P1;PMS_P2;Temp;Humidity;BMP_temperature;BMP_pressure;BME280_temperature;BME280_humidity;BME280_pressure;Samples;Min_cycle;Max_cycle;Signal;HPM_P1;HPM_P2
2023/06/28 00:06:05;;;;;;;36.08;29.35;;;15.60;99.90;;;;;;20997618;28;20060;-51
2023/06/28 00:16:07;;;;;;;46.55;34.63;;;15.40;99.90;;;;;;21032644;28;20067;-50
2023/06/28 00:26:09;;;;;;;63.40;42.53;;;15.30;99.90;;;;;;21023647;28;20093;-51
2023/06/28 00:36:11;;;;;;;61.03;40.50;;;15.30;99.90;;;;;;21017147;28;20538;-49
2023/06/28 00:46:12;;;;;;;48.03;36.15;;;15.20;99.90;;;;;;21024378;28;20135;-46
2023/06/28 00:56:14;;;;;;;50.95;37.20;;;15.20;99.90;;;;;;21033547;28;20134;-49
2023/06/28 01:06:18;;;;;;;51.28;35.28;;;15.20;99.90;;;;;;21023970;28;20165;-54
2023/06/28 01:16:19;;;;;;;65.75;44.40;;;15.20;99.90;;;;;;21031761;28;20068;-50
2023/06/28 01:26:22;;;;;;;77.65;50.13;;;15.10;99.90;;;;;;21003684;28;20086;-45
2023/06/28 01:36:24;;;;;;;69.53;48.38;;;15.10;99.90;;;;;;21031747;28;20151;-53
2023/06/28 01:46:26;;;;;;;62.72;44.38;;;15.10;99.90;;;;;;21008299;28;20144;-50
2023/06/28 01:56:28;;;;;;;66.65;48.15;;;15.10;99.90;;;;;;21003687;28;20600;-52
2023/06/28 02:06:29;;;;;;;58.67;42.95;;;15.10;99.90;;;;;;21005793;28;20064;-47
2023/06/28 02:16:31;;;;;;;67.07;45.10;;;15.10;99.90;;;;;;21024115;28;20158;-50
2023/06/28 02:26:34;;;;;;;65.20;45.83;;;15.10;99.90;;;;;;21018202;28;20143;-52
2023/06/28 02:36:36;;;;;;;50.53;38.30;;;15.10;99.90;;;;;;21024377;28;20074;-53
2023/06/28 02:46:38;;;;;;;53.60;39.47;;;15.10;99.90;;;;;;21037832;28;20075;-51
2023/06/28 02:56:40;;;;;;;54.70;40.63;;;15.00;99.90;;;;;;21003594;28;20442;-47
2023/06/28 03:07:00;;;;;;;51.45;39.30;;;15.00;99.90;;;;;;20996778;28;20485;-53
2023/06/28 03:17:02;;;;;;;51.53;38.53;;;15.00;99.90;;;;;;20995219;28;20084;-46
2023/06/28 03:27:04;;;;;;;53.90;39.10;;;14.90;99.90;;;;;;20990548;28;20047;-51
2023/06/28 03:37:07;;;;;;;49.75;37.55;;;14.90;99.90;;;;;;20987157;28;20166;-48
2023/06/28 03:47:08;;;;;;;51.50;39.33;;;15.00;99.90;;;;;;21026747;28;20747;-49
2023/06/28 03:57:11;;;;;;;44.40;34.17;;;15.20;99.90;;;;;;21028164;28;20559;-48
2023/06/28 04:07:13;;;;;;;49.35;36.38;;;15.20;99.90;;;;;;21036657;28;20083;-51
2023/06/28 04:17:15;;;;;;;36.33;28.80;;;15.20;99.90;;;;;;21041660;28;20067;-49
2023/06/28 04:27:17;;;;;;;38.42;28.88;;;15.30;99.90;;;;;;21038012;28;20499;-48
2023/06/28 04:37:27;;;;;;;31.42;24.55;;;15.40;99.90;;;;;;21014645;28;20120;-51
2023/06/28 04:47:29;;;;;;;35.35;26.42;;;15.40;99.90;;;;;;20982885;28;20087;-44
2023/06/28 04:57:30;;;;;;;30.88;25.30;;;15.40;99.90;;;;;;20987796;28;20133;-49
2023/06/28 05:07:32;;;;;;;33.40;25.40;;;15.40;99.90;;;;;;20997936;28;20562;-47
2023/06/28 05:17:33;;;;;;;25.65;21.98;;;15.50;99.90;;;;;;20993708;28;20129;-45
2023/06/28 05:27:35;;;;;;;24.02;19.60;;;15.60;99.90;;;;;;21011167;28;20410;-51
2023/06/28 05:37:36;;;;;;;21.48;17.23;;;16.00;99.90;;;;;;21007167;28;20064;-50
2023/06/28 05:47:38;;;;;;;23.55;18.50;;;16.60;99.90;;;;;;21007863;28;20477;-48
2023/06/28 05:57:41;;;;;;;21.33;16.17;;;17.50;99.90;;;;;;21017372;28;20067;-49
2023/06/28 06:07:42;;;;;;;19.70;17.63;;;17.40;99.90;;;;;;21000991;28;20068;-51
2023/06/28 06:17:44;;;;;;;20.77;17.50;;;17.60;99.90;;;;;;20975145;28;20121;-53
2023/06/28 06:27:46;;;;;;;21.48;17.98;;;17.70;99.90;;;;;;20980896;28;20068;-53
2023/06/28 06:37:47;;;;;;;22.33;18.67;;;17.80;99.90;;;;;;20975356;28;20127;-52
2023/06/28 06:47:50;;;;;;;23.30;18.90;;;17.50;99.90;;;;;;21015239;28;20149;-51
2023/06/28 06:57:51;;;;;;;21.67;19.20;;;17.20;99.90;;;;;;21020694;28;20086;-53
2023/06/28 07:07:54;;;;;;;20.38;17.83;;;17.20;99.90;;;;;;21004200;28;20429;-53
2023/06/28 07:17:56;;;;;;;21.20;18.02;;;17.60;99.90;;;;;;21011599;28;20078;-51
2023/06/28 07:27:57;;;;;;;22.60;18.70;;;17.50;99.90;;;;;;21009693;28;20059;-54
2023/06/28 07:37:59;;;;;;;20.75;17.17;;;17.60;99.90;;;;;;21000942;28;20185;-54
2023/06/28 07:48:00;;;;;;;19.00;16.88;;;18.20;99.90;;;;;;21017629;28;20610;-50
2023/06/28 07:58:02;;;;;;;17.00;15.25;;;18.20;99.90;;;;;;21032728;28;20116;-52
2023/06/28 08:08:03;;;;;;;14.32;11.68;;;18.20;99.90;;;;;;21018795;28;20067;-51
2023/06/28 08:18:08;;;;;;;16.45;14.75;;;19.10;99.90;;;;;;21019687;28;20492;-52
2023/06/28 08:28:09;;;;;;;15.23;13.63;;;19.80;99.90;;;;;;21019725;28;20196;-57
2023/06/28 08:38:11;;;;;;;15.63;13.77;;;20.30;99.90;;;;;;21015009;28;20064;-54
2023/06/28 08:48:13;;;;;;;14.63;13.13;;;20.70;99.90;;;;;;21021299;28;20087;-50
2023/06/28 08:58:15;;;;;;;13.43;10.80;;;21.60;99.90;;;;;;21025148;28;20059;-57
2023/06/28 09:08:18;;;;;;;15.23;13.73;;;21.90;99.90;;;;;;21012154;28;20482;-53
2023/06/28 09:18:20;;;;;;;20.15;16.48;;;21.10;99.90;;;;;;20988516;28;20067;-54
2023/06/28 09:28:33;;;;;;;19.88;17.77;;;19.90;99.90;;;;;;21006571;28;20122;-53
2023/06/28 09:38:41;;;;;;;21.52;19.23;;;18.50;99.90;;;;;;20989596;28;20500;-51
2023/06/28 09:48:47;;;;;;;24.60;19.60;;;18.10;99.90;;;;;;20993867;28;20482;-46
2023/06/28 09:58:49;;;;;;;16.23;13.93;;;17.90;99.90;;;;;;21005636;28;20615;-54
2023/06/28 10:08:51;;;;;;;15.00;11.95;;;18.50;99.90;;;;;;20995402;28;20107;-57
2023/06/28 10:18:53;;;;;;;9.95;7.97;;;19.70;99.90;;;;;;21000160;28;20223;-53
2023/06/28 10:28:55;;;;;;;9.57;7.72;;;20.70;99.90;;;;;;21006571;28;20503;-57
2023/06/28 10:38:57;;;;;;;9.10;8.20;;;19.90;99.90;;;;;;21010052;28;20121;-50
2023/06/28 10:48:59;;;;;;;9.32;7.95;;;19.00;99.90;;;;;;20900244;28;20084;-55
2023/06/28 10:59:05;;;;;;;9.48;8.48;;;18.10;99.90;;;;;;20891323;28;20064;-54
2023/06/28 11:09:16;;;;;;;9.13;7.70;;;17.30;99.90;;;;;;20893245;28;20060;-52
2023/06/28 11:19:22;;;;;;;11.55;8.13;;;16.90;99.90;;;;;;20900459;28;20106;-55
2023/06/28 11:29:23;;;;;;;11.60;9.98;;;16.60;99.90;;;;;;20919249;28;20640;-56
2023/06/28 11:39:25;;;;;;;11.85;10.02;;;16.50;99.90;;;;;;20889534;28;20125;-56
2023/06/28 11:49:27;;;;;;;10.80;8.45;;;16.40;99.90;;;;;;20994904;28;20071;-52
2023/06/28 11:59:29;;;;;;;9.50;7.20;;;17.00;99.90;;;;;;20983820;28;20464;-51
2023/06/28 12:09:33;;;;;;;7.15;6.25;;;17.40;99.90;;;;;;20978479;28;20129;-50
2023/06/28 12:19:35;;;;;;;6.75;5.88;;;17.90;99.90;;;;;;20993137;28;20123;-45
2023/06/28 12:29:38;;;;;;;8.73;5.78;;;18.20;99.90;;;;;;21010241;28;20075;-56
2023/06/28 12:39:43;;;;;;;10.00;6.25;;;18.20;99.90;;;;;;21010425;28;20071;-55
2023/06/28 12:49:45;;;;;;;8.55;6.65;;;18.00;99.90;;;;;;21016082;28;20470;-53
2023/06/28 12:59:47;;;;;;;8.05;6.53;;;18.00;99.90;;;;;;21019722;28;20079;-54
2023/06/28 13:09:48;;;;;;;8.25;6.60;;;17.50;99.90;;;;;;20980372;28;20072;-54
2023/06/28 13:19:50;;;;;;;8.35;6.63;;;17.40;99.90;;;;;;20984491;28;20068;-56
2023/06/28 13:29:52;;;;;;;8.82;6.60;;;18.00;99.90;;;;;;20987364;28;20505;-54
2023/06/28 13:39:53;;;;;;;10.45;6.75;;;18.20;99.90;;;;;;20993692;28;20098;-56
2023/06/28 13:49:56;;;;;;;7.50;5.38;;;18.40;99.90;;;;;;21006919;28;20071;-54
2023/06/28 13:59:58;;;;;;;7.72;5.47;;;18.90;99.90;;;;;;21001439;28;20093;-55
2023/06/28 14:10:00;;;;;;;7.30;5.63;;;19.70;99.90;;;;;;21002497;28;20628;-58
2023/06/28 14:20:01;;;;;;;7.43;4.80;;;21.90;99.90;;;;;;21006726;28;20072;-58
2023/06/28 14:30:03;;;;;;;6.53;4.60;;;24.30;99.90;;;;;;21025493;28;20064;-57
2023/06/28 14:40:05;;;;;;;7.50;4.40;;;24.70;99.90;;;;;;20985938;28;20577;-58
2023/06/28 14:50:09;;;;;;;7.68;5.43;;;26.00;99.90;;;;;;21035289;28;20513;-57
2023/06/28 15:00:12;;;;;;;7.90;5.03;;;24.20;99.70;;;;;;21044159;28;20461;-54
2023/06/28 15:10:13;;;;;;;8.10;6.10;;;23.00;99.90;;;;;;21050373;28;20578;-53
2023/06/28 15:20:15;;;;;;;6.72;5.28;;;22.00;99.90;;;;;;21045545;28;20071;-55
2023/06/28 15:30:16;;;;;;;7.95;5.45;;;20.70;99.90;;;;;;21049702;28;20072;-48
2023/06/28 15:40:18;;;;;;;7.70;5.63;;;19.60;99.90;;;;;;21037270;28;20079;-54
2023/06/28 15:50:20;;;;;;;7.18;6.30;;;18.90;99.90;;;;;;21003113;28;20118;-53
2023/06/28 16:00:22;;;;;;;6.63;5.93;;;18.80;99.90;;;;;;21018895;28;20128;-47
2023/06/28 16:10:24;;;;;;;8.20;6.22;;;18.60;99.90;;;;;;21006151;28;20117;-54
2023/06/28 16:20:25;;;;;;;7.82;7.00;;;18.20;99.90;;;;;;20972876;28;20075;-56
2023/06/28 16:30:27;;;;;;;9.20;6.72;;;17.90;99.90;;;;;;20990235;28;20098;-51
2023/06/28 16:40:29;;;;;;;8.93;6.60;;;17.50;99.90;;;;;;20989755;28;20095;-52
2023/06/28 16:50:31;;;;;;;10.93;6.68;;;17.40;99.90;;;;;;21000193;28;20442;-51
2023/06/28 17:00:33;;;;;;;10.00;6.90;;;17.30;99.90;;;;;;21003323;28;20578;-47
2023/06/28 17:10:35;;;;;;;9.32;5.80;;;17.20;99.90;;;;;;21011185;28;20121;-52
2023/06/28 17:20:36;;;;;;;8.27;6.20;;;17.10;99.90;;;;;;21015576;28;20469;-51
2023/06/28 17:30:39;;;;;;;7.53;5.05;;;16.90;99.90;;;;;;21007861;28;20071;-51
2023/06/28 17:40:40;;;;;;;6.05;4.65;;;17.00;99.90;;;;;;20982246;28;20110;-53
2023/06/28 17:50:42;;;;;;;8.07;5.15;;;17.00;99.90;;;;;;20978362;28;20068;-51
2023/06/28 18:00:47;;;;;;;6.78;5.57;;;16.70;99.90;;;;;;20982024;28;20078;-55
2023/06/28 18:10:48;;;;;;;8.00;5.65;;;16.40;99.90;;;;;;20988334;28;20117;-52
2023/06/28 18:20:50;;;;;;;8.60;5.50;;;16.20;99.90;;;;;;20988611;28;20111;-50
2023/06/28 18:30:51;;;;;;;8.70;5.30;;;16.00;99.90;;;;;;20994396;28;20067;-55
2023/06/28 18:40:53;;;;;;;5.63;4.95;;;15.60;99.90;;;;;;20991161;28;20067;-55
2023/06/28 18:50:55;;;;;;;9.85;6.13;;;15.40;99.90;;;;;;21009696;28;20078;-52
2023/06/28 19:00:57;;;;;;;9.30;5.72;;;15.20;99.90;;;;;;21003116;28;20474;-56
2023/06/28 19:11:00;;;;;;;9.93;6.00;;;15.00;99.90;;;;;;20995273;28;20068;-52
2023/06/28 19:21:02;;;;;;;7.57;6.20;;;14.80;99.90;;;;;;20970965;28;20525;-45
2023/06/28 19:31:04;;;;;;;11.43;6.93;;;14.60;99.90;;;;;;20974977;28;20132;-49
2023/06/28 19:41:06;;;;;;;8.55;6.72;;;14.30;99.90;;;;;;20988609;28;20123;-51
2023/06/28 19:51:07;;;;;;;7.75;6.65;;;14.20;99.90;;;;;;21002507;28;20099;-50
2023/06/28 20:01:09;;;;;;;9.68;7.32;;;14.20;99.90;;;;;;21002203;28;20072;-54
2023/06/28 20:11:11;;;;;;;9.32;7.88;;;14.00;99.90;;;;;;21008290;28;20071;-54
2023/06/28 20:21:13;;;;;;;9.20;7.85;;;13.80;99.90;;;;;;21018331;28;20626;-51
2023/06/28 20:31:15;;;;;;;8.85;7.95;;;13.80;99.90;;;;;;21017217;28;20071;-47
2023/06/28 20:41:24;;;;;;;9.20;7.70;;;13.80;99.90;;;;;;21026012;28;20154;-47
2023/06/28 20:51:26;;;;;;;11.00;7.63;;;14.00;99.90;;;;;;20984380;28;20577;-52
2023/06/28 21:01:27;;;;;;;9.32;7.53;;;14.00;99.90;;;;;;20998552;28;20063;-51
2023/06/28 21:11:29;;;;;;;10.85;7.60;;;14.00;99.90;;;;;;20990035;28;20063;-46
2023/06/28 21:21:30;;;;;;;8.88;7.45;;;14.00;99.90;;;;;;20989265;28;21005;-53
2023/06/28 21:31:32;;;;;;;10.85;7.20;;;14.00;99.90;;;;;;21000725;28;20124;-50
2023/06/28 21:41:34;;;;;;;8.90;6.72;;;14.00;99.90;;;;;;21001435;28;20596;-49
2023/06/28 21:51:35;;;;;;;9.40;6.97;;;14.00;99.90;;;;;;21013163;28;20096;-50
2023/06/28 22:01:37;;;;;;;10.63;7.47;;;14.10;99.90;;;;;;21012036;28;20071;-48
2023/06/28 22:11:39;;;;;;;8.40;7.50;;;14.10;99.90;;;;;;21022878;28;20063;-46
2023/06/28 22:21:44;;;;;;;11.07;7.80;;;14.20;99.90;;;;;;21004062;28;20136;-55
2023/06/28 22:31:45;;;;;;;12.07;7.88;;;14.10;99.90;;;;;;20990335;28;20547;-49
2023/06/28 22:41:47;;;;;;;11.35;9.18;;;14.10;99.90;;;;;;20985255;28;20149;-53
2023/06/28 22:51:52;;;;;;;9.93;7.88;;;14.20;99.90;;;;;;20985883;28;20074;-53
2023/06/28 23:01:54;;;;;;;11.85;7.57;;;14.30;99.90;;;;;;20997985;28;20557;-51
2023/06/28 23:11:57;;;;;;;9.63;5.53;;;14.40;99.90;;;;;;20983058;28;20064;-50
2023/06/28 23:22:02;;;;;;;5.13;3.75;;;14.30;99.90;;;;;;20991575;28;20072;-52
2023/06/28 23:32:04;;;;;;;5.07;2.60;;;14.10;99.90;;;;;;21009632;28;20133;-50
2023/06/28 23:42:06;;;;;;;7.82;2.90;;;14.00;99.90;;;;;;21005467;28;20072;-53
2023/06/28 23:52:09;;;;;;;4.85;2.53;;;13.80;99.90;;;;;;21007067;28;20082;-51
